sensor_id;sensor_type;location;lat;lon;timestamp;P1;durP1;ratioP1;P2;durP2;ratioP2
76204;SDS011;64986;55.672;37.628;2023-06-24T00:02:10;8.50;;;7.25;;
76204;SDS011;64986;55.672;37.628;2023-06-24T00:04:35;10.13;;;8.18;;
76204;SDS011;64986;55.672;37.628;2023-06-24T00:07:01;8.15;;;7.30;;
76204;SDS011;64986;55.672;37.628;2023-06-24T00:09:26;9.70;;;8.70;;
76204;SDS011;64986;55.672;37.628;2023-06-24T00:11:56;7.68;;;6.97;;
76204;SDS011;64986;55.672;37.628;2023-06-24T00:14:22;8.23;;;7.43;;
76204;SDS011;64986;55.672;37.628;2023-06-24T00:16:52;8.50;;;7.53;;
76204;SDS011;64986;55.672;37.628;2023-06-24T00:19:18;8.43;;;7.57;;
76204;SDS011;64986;55.672;37.628;2023-06-24T00:21:44;8.80;;;8.00;;
76204;SDS011;64986;55.672;37.628;2023-06-24T00:24:09;9.90;;;7.95;;
76204;SDS011;64986;55.672;37.628;2023-06-24T00:26:35;8.52;;;7.68;;
76204;SDS011;64986;55.672;37.628;2023-06-24T00:29:00;9.60;;;7.78;;
76204;SDS011;64986;55.672;37.628;2023-06-24T00:31:25;9.65;;;7.80;;
76204;SDS011;64986;55.672;37.628;2023-06-24T00:33:51;8.45;;;7.65;;
76204;SDS011;64986;55.672;37.628;2023-06-24T00:36:17;8.70;;;7.88;;
76204;SDS011;64986;55.672;37.628;2023-06-24T00:38:42;10.07;;;8.77;;
76204;SDS011;64986;55.672;37.628;2023-06-24T00:41:08;10.95;;;7.97;;
76204;SDS011;64986;55.672;37.628;2023-06-24T00:43:34;8.23;;;7.07;;
76204;SDS011;64986;55.672;37.628;2023-06-24T00:45:59;10.85;;;8.98;;
76204;SDS011;64986;55.672;37.628;2023-06-24T00:48:24;8.82;;;7.65;;
76204;SDS011;64986;55.672;37.628;2023-06-24T00:50:50;8.05;;;7.00;;
76204;SDS011;64986;55.672;37.628;2023-06-24T00:53:16;9.57;;;8.60;;
76204;SDS011;64986;55.672;37.628;2023-06-24T00:55:41;9.18;;;8.32;;
76204;SDS011;64986;55.672;37.628;2023-06-24T00:58:07;10.82;;;8.82;;
76204;SDS011;64986;55.672;37.628;2023-06-24T01:00:32;7.15;;;6.20;;
76204;SDS011;64986;55.672;37.628;2023-06-24T01:02:59;8.00;;;7.20;;
76204;SDS011;64986;55.672;37.628;2023-06-24T01:05:25;8.77;;;7.97;;
76204;SDS011;64986;55.672;37.628;2023-06-24T01:07:51;8.13;;;7.32;;
76204;SDS011;64986;55.672;37.628;2023-06-24T01:10:21;8.93;;;8.13;;
76204;SDS011;64986;55.672;37.628;2023-06-24T01:12:47;9.45;;;8.25;;
76204;SDS011;64986;55.672;37.628;2023-06-24T01:15:12;8.07;;;7.38;;
76204;SDS011;64986;55.672;37.628;2023-06-24T01:17:49;7.68;;;6.97;;
76204;SDS011;64986;55.672;37.628;2023-06-24T01:20:27;8.50;;;7.70;;
76204;SDS011;64986;55.672;37.628;2023-06-24T01:23:11;9.57;;;8.52;;
76204;SDS011;64986;55.672;37.628;2023-06-24T01:33:42;9.07;;;7.38;;
76204;SDS011;64986;55.672;37.628;2023-06-24T01:36:12;7.88;;;7.13;;
76204;SDS011;64986;55.672;37.628;2023-06-24T01:38:43;7.68;;;6.97;;
76204;SDS011;64986;55.672;37.628;2023-06-24T01:41:11;6.28;;;5.18;;
76204;SDS011;64986;55.672;37.628;2023-06-24T01:43:38;6.18;;;5.57;;
76204;SDS011;64986;55.672;37.628;2023-06-24T01:46:06;6.45;;;5.85;;
76204;SDS011;64986;55.672;37.628;2023-06-24T01:48:34;6.40;;;5.10;;
76204;SDS011;64986;55.672;37.628;2023-06-24T01:51:04;5.40;;;4.90;;
76204;SDS011;64986;55.672;37.628;2023-06-24T01:53:32;5.38;;;4.88;;
76204;SDS011;64986;55.672;37.628;2023-06-24T01:55:59;5.75;;;3.92;;
76204;SDS011;64986;55.672;37.628;2023-06-24T01:58:25;4.75;;;4.35;;
76204;SDS011;64986;55.672;37.628;2023-06-24T02:00:51;6.13;;;3.95;;
76204;SDS011;64986;55.672;37.628;2023-06-24T02:03:17;3.50;;;3.17;;
76204;SDS011;64986;55.672;37.628;2023-06-24T02:05:43;4.63;;;4.07;;
76204;SDS011;64986;55.672;37.628;2023-06-24T02:08:09;3.28;;;2.85;;
76204;SDS011;64986;55.672;37.628;2023-06-24T02:10:38;3.35;;;2.92;;
76204;SDS011;64986;55.672;37.628;2023-06-24T02:13:04;4.22;;;3.80;;
76204;SDS011;64986;55.672;37.628;2023-06-24T02:15:30;3.80;;;3.20;;
76204;SDS011;64986;55.672;37.628;2023-06-24T02:17:56;5.07;;;3.90;;
76204;SDS011;64986;55.672;37.628;2023-06-24T02:20:22;3.78;;;3.38;;
76204;SDS011;64986;55.672;37.628;2023-06-24T02:22:52;3.20;;;2.90;;
76204;SDS011;64986;55.672;37.628;2023-06-24T02:25:17;3.03;;;2.78;;
76204;SDS011;64986;55.672;37.628;2023-06-24T02:27:43;3.35;;;2.90;;
76204;SDS011;64986;55.672;37.628;2023-06-24T02:30:09;2.90;;;2.60;;
76204;SDS011;64986;55.672;37.628;2023-06-24T02:32:34;3.58;;;2.53;;
76204;SDS011;64986;55.672;37.628;2023-06-24T02:35:03;3.25;;;2.63;;
76204;SDS011;64986;55.672;37.628;2023-06-24T02:37:28;2.08;;;1.80;;
76204;SDS011;64986;55.672;37.628;2023-06-24T02:39:53;2.85;;;1.80;;
76204;SDS011;64986;55.672;37.628;2023-06-24T02:42:19;1.90;;;1.60;;
76204;SDS011;64986;55.672;37.628;2023-06-24T02:44:45;1.40;;;1.30;;
76204;SDS011;64986;55.672;37.628;2023-06-24T02:47:10;1.63;;;1.25;;
76204;SDS011;64986;55.672;37.628;2023-06-24T02:49:37;2.08;;;1.50;;
76204;SDS011;64986;55.672;37.628;2023-06-24T02:52:06;1.73;;;1.60;;
76204;SDS011;64986;55.672;37.628;2023-06-24T02:54:32;2.10;;;1.90;;
76204;SDS011;64986;55.672;37.628;2023-06-24T02:56:58;1.67;;;1.58;;
76204;SDS011;64986;55.672;37.628;2023-06-24T02:59:24;2.10;;;1.63;;
76204;SDS011;64986;55.672;37.628;2023-06-24T03:01:49;3.00;;;1.50;;
76204;SDS011;64986;55.672;37.628;2023-06-24T03:04:15;1.90;;;1.60;;
76204;SDS011;64986;55.672;37.628;2023-06-24T03:06:41;1.15;;;0.82;;
76204;SDS011;64986;55.672;37.628;2023-06-24T03:09:06;1.98;;;1.30;;
76204;SDS011;64986;55.672;37.628;2023-06-24T03:11:39;3.08;;;1.17;;
76204;SDS011;64986;55.672;37.628;2023-06-24T03:14:05;1.13;;;0.90;;
76204;SDS011;64986;55.672;37.628;2023-06-24T03:16:30;1.23;;;1.10;;
76204;SDS011;64986;55.672;37.628;2023-06-24T03:18:56;1.35;;;1.17;;
76204;SDS011;64986;55.672;37.628;2023-06-24T03:21:21;1.65;;;0.88;;
76204;SDS011;64986;55.672;37.628;2023-06-24T03:23:46;1.48;;;1.20;;
76204;SDS011;64986;55.672;37.628;2023-06-24T03:26:11;0.80;;;0.80;;
76204;SDS011;64986;55.672;37.628;2023-06-24T03:28:37;1.25;;;1.15;;
76204;SDS011;64986;55.672;37.628;2023-06-24T03:31:03;1.13;;;0.90;;
76204;SDS011;64986;55.672;37.628;2023-06-24T03:33:28;1.27;;;0.80;;
76204;SDS011;64986;55.672;37.628;2023-06-24T03:35:54;0.70;;;0.70;;
76204;SDS011;64986;55.672;37.628;2023-06-24T03:38:22;1.00;;;0.90;;
76204;SDS011;64986;55.672;37.628;2023-06-24T03:40:47;2.67;;;0.80;;
76204;SDS011;64986;55.672;37.628;2023-06-24T03:43:12;0.93;;;0.85;;
76204;SDS011;64986;55.672;37.628;2023-06-24T03:45:38;0.90;;;0.90;;
76204;SDS011;64986;55.672;37.628;2023-06-24T03:48:03;2.72;;;0.60;;
76204;SDS011;64986;55.672;37.628;2023-06-24T03:50:29;3.00;;;1.20;;
76204;SDS011;64986;55.672;37.628;2023-06-24T03:52:54;1.35;;;0.90;;
76204;SDS011;64986;55.672;37.628;2023-06-24T03:55:19;0.90;;;0.80;;
76204;SDS011;64986;55.672;37.628;2023-06-24T03:57:44;1.00;;;0.90;;
76204;SDS011;64986;55.672;37.628;2023-06-24T04:00:10;1.38;;;0.93;;
76204;SDS011;64986;55.672;37.628;2023-06-24T04:02:41;1.90;;;1.00;;
76204;SDS011;64986;55.672;37.628;2023-06-24T04:05:07;1.00;;;0.90;;
76204;SDS011;64986;55.672;37.628;2023-06-24T04:07:32;2.08;;;0.80;;
76204;SDS011;64986;55.672;37.628;2023-06-24T04:09:58;0.70;;;0.70;;
76204;SDS011;64986;55.672;37.628;2023-06-24T04:12:23;1.02;;;0.90;;
76204;SDS011;64986;55.672;37.628;2023-06-24T04:14:49;0.80;;;0.77;;
76204;SDS011;64986;55.672;37.628;2023-06-24T04:17:14;2.33;;;0.77;;
76204;SDS011;64986;55.672;37.628;2023-06-24T04:19:40;1.73;;;0.80;;
76204;SDS011;64986;55.672;37.628;2023-06-24T04:22:05;1.67;;;1.00;;
76204;SDS011;64986;55.672;37.628;2023-06-24T04:24:31;2.22;;;0.82;;
76204;SDS011;64986;55.672;37.628;2023-06-24T04:26:57;0.93;;;0.82;;
76204;SDS011;64986;55.672;37.628;2023-06-24T04:29:23;0.65;;;0.65;;
76204;SDS011;64986;55.672;37.628;2023-06-24T04:31:48;1.00;;;0.70;;
76204;SDS011;64986;55.672;37.628;2023-06-24T04:34:13;0.90;;;0.73;;
76204;SDS011;64986;55.672;37.628;2023-06-24T04:36:39;2.30;;;1.00;;
76204;SDS011;64986;55.672;37.628;2023-06-24T04:39:04;3.03;;;0.80;;
76204;SDS011;64986;55.672;37.628;2023-06-24T04:41:29;1.85;;;0.60;;
76204;SDS011;64986;55.672;37.628;2023-06-24T04:43:57;1.75;;;0.90;;
76204;SDS011;64986;55.672;37.628;2023-06-24T04:46:22;0.60;;;0.60;;
76204;SDS011;64986;55.672;37.628;2023-06-24T04:48:47;0.90;;;0.60;;
76204;SDS011;64986;55.672;37.628;2023-06-24T04:51:13;1.92;;;0.80;;
76204;SDS011;64986;55.672;37.628;2023-06-24T04:53:38;1.27;;;0.70;;
76204;SDS011;64986;55.672;37.628;2023-06-24T04:56:03;0.60;;;0.60;;
76204;SDS011;64986;55.672;37.628;2023-06-24T04:58:29;3.72;;;0.90;;
76204;SDS011;64986;55.672;37.628;2023-06-24T05:00:54;1.38;;;0.80;;
76204;SDS011;64986;55.672;37.628;2023-06-24T05:03:19;1.42;;;0.60;;
76204;SDS011;64986;55.672;37.628;2023-06-24T05:05:45;2.22;;;0.77;;
76204;SDS011;64986;55.672;37.628;2023-06-24T05:08:10;2.40;;;1.10;;
76204;SDS011;64986;55.672;37.628;2023-06-24T05:10:35;2.17;;;1.45;;
76204;SDS011;64986;55.672;37.628;2023-06-24T05:13:01;0.60;;;0.57;;
76204;SDS011;64986;55.672;37.628;2023-06-24T05:15:26;1.35;;;0.68;;
76204;SDS011;64986;55.672;37.628;2023-06-24T05:17:51;1.58;;;0.90;;
76204;SDS011;64986;55.672;37.628;2023-06-24T05:20:17;1.10;;;0.75;;
76204;SDS011;64986;55.672;37.628;2023-06-24T05:22:43;0.85;;;0.63;;
76204;SDS011;64986;55.672;37.628;2023-06-24T05:25:08;0.70;;;0.70;;
76204;SDS011;64986;55.672;37.628;2023-06-24T05:27:33;0.60;;;0.60;;
76204;SDS011;64986;55.672;37.628;2023-06-24T05:29:59;1.35;;;0.80;;
76204;SDS011;64986;55.672;37.628;2023-06-24T05:32:24;1.80;;;0.85;;
76204;SDS011;64986;55.672;37.628;2023-06-24T05:34:49;1.42;;;0.70;;
76204;SDS011;64986;55.672;37.628;2023-06-24T05:37:15;0.80;;;0.80;;
76204;SDS011;64986;55.672;37.628;2023-06-24T05:39:40;1.00;;;0.80;;
76204;SDS011;64986;55.672;37.628;2023-06-24T05:42:05;1.20;;;1.00;;
76204;SDS011;64986;55.672;37.628;2023-06-24T05:44:31;0.75;;;0.70;;
76204;SDS011;64986;55.672;37.628;2023-06-24T05:46:56;2.38;;;1.00;;
76204;SDS011;64986;55.672;37.628;2023-06-24T05:49:21;1.60;;;0.70;;
76204;SDS011;64986;55.672;37.628;2023-06-24T05:51:47;1.30;;;1.10;;
76204;SDS011;64986;55.672;37.628;2023-06-24T05:54:12;1.58;;;1.02;;
76204;SDS011;64986;55.672;37.628;2023-06-24T05:56:37;1.58;;;1.00;;
76204;SDS011;64986;55.672;37.628;2023-06-24T05:59:03;1.42;;;1.02;;
76204;SDS011;64986;55.672;37.628;2023-06-24T06:01:28;1.95;;;1.10;;
76204;SDS011;64986;55.672;37.628;2023-06-24T06:03:53;1.98;;;0.90;;
76204;SDS011;64986;55.672;37.628;2023-06-24T06:06:19;0.98;;;0.70;;
76204;SDS011;64986;55.672;37.628;2023-06-24T06:08:44;2.70;;;0.70;;
76204;SDS011;64986;55.672;37.628;2023-06-24T06:11:09;1.58;;;0.98;;
76204;SDS011;64986;55.672;37.628;2023-06-24T06:13:34;1.92;;;0.63;;
76204;SDS011;64986;55.672;37.628;2023-06-24T06:16:00;2.72;;;1.17;;
76204;SDS011;64986;55.672;37.628;2023-06-24T06:18:25;6.20;;;1.30;;
76204;SDS011;64986;55.672;37.628;2023-06-24T06:20:51;1.55;;;0.90;;
76204;SDS011;64986;55.672;37.628;2023-06-24T06:23:16;1.10;;;0.75;;
76204;SDS011;64986;55.672;37.628;2023-06-24T06:25:42;1.13;;;0.90;;
76204;SDS011;64986;55.672;37.628;2023-06-24T06:28:07;1.20;;;0.88;;
76204;SDS011;64986;55.672;37.628;2023-06-24T06:30:32;1.63;;;0.80;;
76204;SDS011;64986;55.672;37.628;2023-06-24T06:32:58;4.93;;;1.30;;
76204;SDS011;64986;55.672;37.628;2023-06-24T06:35:23;2.97;;;1.27;;
76204;SDS011;64986;55.672;37.628;2023-06-24T06:37:48;1.33;;;0.80;;
76204;SDS011;64986;55.672;37.628;2023-06-24T06:40:20;0.90;;;0.75;;
76204;SDS011;64986;55.672;37.628;2023-06-24T06:42:46;1.42;;;1.10;;
76204;SDS011;64986;55.672;37.628;2023-06-24T06:45:12;2.08;;;0.90;;
76204;SDS011;64986;55.672;37.628;2023-06-24T06:47:37;1.02;;;0.88;;
76204;SDS011;64986;55.672;37.628;2023-06-24T06:50:02;2.10;;;1.10;;
76204;SDS011;64986;55.672;37.628;2023-06-24T06:52:28;0.90;;;0.70;;
76204;SDS011;64986;55.672;37.628;2023-06-24T06:54:53;1.05;;;0.90;;
76204;SDS011;64986;55.672;37.628;2023-06-24T06:57:19;2.53;;;1.02;;
76204;SDS011;64986;55.672;37.628;2023-06-24T06:59:44;1.85;;;1.10;;
76204;SDS011;64986;55.672;37.628;2023-06-24T07:02:09;1.55;;;0.90;;
76204;SDS011;64986;55.672;37.628;2023-06-24T07:04:35;2.60;;;1.30;;
76204;SDS011;64986;55.672;37.628;2023-06-24T07:07:00;3.20;;;1.02;;
76204;SDS011;64986;55.672;37.628;2023-06-24T07:09:25;1.02;;;0.80;;
76204;SDS011;64986;55.672;37.628;2023-06-24T07:11:51;1.35;;;1.05;;
76204;SDS011;64986;55.672;37.628;2023-06-24T07:14:16;1.17;;;1.08;;
76204;SDS011;64986;55.672;37.628;2023-06-24T07:16:41;1.90;;;1.02;;
76204;SDS011;64986;55.672;37.628;2023-06-24T07:19:07;1.55;;;1.25;;
76204;SDS011;64986;55.672;37.628;2023-06-24T07:21:32;2.05;;;1.10;;
76204;SDS011;64986;55.672;37.628;2023-06-24T07:23:57;1.63;;;1.20;;
76204;SDS011;64986;55.672;37.628;2023-06-24T07:26:23;3.13;;;1.35;;
76204;SDS011;64986;55.672;37.628;2023-06-24T07:28:48;2.95;;;1.70;;
76204;SDS011;64986;55.672;37.628;2023-06-24T07:31:13;3.90;;;1.42;;
76204;SDS011;64986;55.672;37.628;2023-06-24T07:33:39;1.75;;;1.40;;
76204;SDS011;64986;55.672;37.628;2023-06-24T07:36:04;3.88;;;1.58;;
76204;SDS011;64986;55.672;37.628;2023-06-24T07:38:29;4.90;;;1.20;;
76204;SDS011;64986;55.672;37.628;2023-06-24T07:40:55;2.58;;;1.30;;
76204;SDS011;64986;55.672;37.628;2023-06-24T07:43:20;1.88;;;1.45;;
76204;SDS011;64986;55.672;37.628;2023-06-24T07:45:45;2.88;;;1.60;;
76204;SDS011;64986;55.672;37.628;2023-06-24T07:48:11;2.47;;;1.67;;
76204;SDS011;64986;55.672;37.628;2023-06-24T07:50:37;6.20;;;1.70;;
76204;SDS011;64986;55.672;37.628;2023-06-24T07:53:02;2.75;;;1.70;;
76204;SDS011;64986;55.672;37.628;2023-06-24T07:55:28;1.73;;;1.42;;
76204;SDS011;64986;55.672;37.628;2023-06-24T07:57:53;2.72;;;1.50;;
76204;SDS011;64986;55.672;37.628;2023-06-24T08:00:18;3.88;;;2.08;;
76204;SDS011;64986;55.672;37.628;2023-06-24T08:02:44;2.85;;;1.75;;
76204;SDS011;64986;55.672;37.628;2023-06-24T08:05:09;2.85;;;1.73;;
76204;SDS011;64986;55.672;37.628;2023-06-24T08:07:35;3.05;;;1.30;;
76204;SDS011;64986;55.672;37.628;2023-06-24T08:10:01;1.98;;;1.50;;
76204;SDS011;64986;55.672;37.628;2023-06-24T08:12:26;2.78;;;1.65;;
76204;SDS011;64986;55.672;37.628;2023-06-24T08:14:51;4.57;;;2.13;;
76204;SDS011;64986;55.672;37.628;2023-06-24T08:17:17;2.53;;;2.03;;
76204;SDS011;64986;55.672;37.628;2023-06-24T08:19:42;3.47;;;1.60;;
76204;SDS011;64986;55.672;37.628;2023-06-24T08:22:07;3.25;;;1.45;;
76204;SDS011;64986;55.672;37.628;2023-06-24T08:24:33;2.17;;;1.52;;
76204;SDS011;64986;55.672;37.628;2023-06-24T08:26:58;4.00;;;1.67;;
76204;SDS011;64986;55.672;37.628;2023-06-24T08:29:23;2.97;;;1.80;;
76204;SDS011;64986;55.672;37.628;2023-06-24T08:31:49;2.22;;;1.75;;
76204;SDS011;64986;55.672;37.628;2023-06-24T08:34:14;2.55;;;1.70;;
76204;SDS011;64986;55.672;37.628;2023-06-24T08:36:39;3.25;;;1.90;;
76204;SDS011;64986;55.672;37.628;2023-06-24T08:39:05;2.65;;;1.92;;
76204;SDS011;64986;55.672;37.628;2023-06-24T08:41:30;3.10;;;1.90;;
76204;SDS011;64986;55.672;37.628;2023-06-24T08:43:55;2.28;;;1.50;;
76204;SDS011;64986;55.672;37.628;2023-06-24T08:46:21;4.13;;;1.60;;
76204;SDS011;64986;55.672;37.628;2023-06-24T08:48:49;3.70;;;1.75;;
76204;SDS011;64986;55.672;37.628;2023-06-24T08:51:18;3.65;;;1.80;;
76204;SDS011;64986;55.672;37.628;2023-06-24T08:53:46;2.67;;;1.73;;
76204;SDS011;64986;55.672;37.628;2023-06-24T08:56:13;3.67;;;1.98;;
76204;SDS011;64986;55.672;37.628;2023-06-24T08:58:39;4.95;;;2.50;;
76204;SDS011;64986;55.672;37.628;2023-06-24T09:01:05;3.55;;;2.38;;
76204;SDS011;64986;55.672;37.628;2023-06-24T09:03:31;2.45;;;2.00;;
76204;SDS011;64986;55.672;37.628;2023-06-24T09:05:57;3.28;;;1.73;;
76204;SDS011;64986;55.672;37.628;2023-06-24T09:08:22;6.85;;;2.15;;
76204;SDS011;64986;55.672;37.628;2023-06-24T09:10:52;4.72;;;1.95;;
76204;SDS011;64986;55.672;37.628;2023-06-24T09:13:18;2.90;;;2.03;;
76204;SDS011;64986;55.672;37.628;2023-06-24T09:15:43;3.88;;;2.20;;
76204;SDS011;64986;55.672;37.628;2023-06-24T09:18:08;2.45;;;2.03;;
76204;SDS011;64986;55.672;37.628;2023-06-24T09:20:35;2.72;;;2.15;;
76204;SDS011;64986;55.672;37.628;2023-06-24T09:23:05;5.20;;;2.22;;
76204;SDS011;64986;55.672;37.628;2023-06-24T09:25:31;4.60;;;2.28;;
76204;SDS011;64986;55.672;37.628;2023-06-24T09:28:00;3.78;;;2.45;;
76204;SDS011;64986;55.672;37.628;2023-06-24T09:30:25;4.43;;;2.20;;
76204;SDS011;64986;55.672;37.628;2023-06-24T09:32:51;2.83;;;2.20;;
76204;SDS011;64986;55.672;37.628;2023-06-24T09:35:24;4.10;;;2.67;;
76204;SDS011;64986;55.672;37.628;2023-06-24T09:37:53;3.83;;;1.88;;
76204;SDS011;64986;55.672;37.628;2023-06-24T09:40:19;3.47;;;2.10;;
76204;SDS011;64986;55.672;37.628;2023-06-24T09:42:54;3.78;;;2.75;;
76204;SDS011;64986;55.672;37.628;2023-06-24T09:45:27;3.83;;;2.53;;
76204;SDS011;64986;55.672;37.628;2023-06-24T09:47:53;3.90;;;2.05;;
76204;SDS011;64986;55.672;37.628;2023-06-24T09:50:19;5.15;;;2.60;;
76204;SDS011;64986;55.672;37.628;2023-06-24T09:52:44;4.68;;;2.70;;
76204;SDS011;64986;55.672;37.628;2023-06-24T09:55:10;4.03;;;3.05;;
76204;SDS011;64986;55.672;37.628;2023-06-24T09:57:36;2.85;;;2.30;;
76204;SDS011;64986;55.672;37.628;2023-06-24T10:00:02;3.83;;;2.92;;
76204;SDS011;64986;55.672;37.628;2023-06-24T10:02:29;7.63;;;3.58;;
76204;SDS011;64986;55.672;37.628;2023-06-24T10:04:55;4.95;;;3.63;;
76204;SDS011;64986;55.672;37.628;2023-06-24T10:07:21;7.38;;;3.50;;
76204;SDS011;64986;55.672;37.628;2023-06-24T10:09:47;4.35;;;3.95;;
76204;SDS011;64986;55.672;37.628;2023-06-24T10:12:12;4.05;;;3.25;;
76204;SDS011;64986;55.672;37.628;2023-06-24T10:14:37;3.97;;;3.45;;
76204;SDS011;64986;55.672;37.628;2023-06-24T10:17:03;3.95;;;3.20;;
76204;SDS011;64986;55.672;37.628;2023-06-24T10:19:29;4.20;;;3.58;;
76204;SDS011;64986;55.672;37.628;2023-06-24T10:21:57;3.60;;;3.30;;
76204;SDS011;64986;55.672;37.628;2023-06-24T10:24:35;3.53;;;3.22;;
76204;SDS011;64986;55.672;37.628;2023-06-24T10:27:04;3.97;;;3.35;;
76204;SDS011;64986;55.672;37.628;2023-06-24T10:29:33;4.45;;;3.20;;
76204;SDS011;64986;55.672;37.628;2023-06-24T10:32:02;4.63;;;3.13;;
76204;SDS011;64986;55.672;37.628;2023-06-24T10:37:22;3.38;;;3.08;;
76204;SDS011;64986;55.672;37.628;2023-06-24T10:44:51;3.22;;;2.92;;
76204;SDS011;64986;55.672;37.628;2023-06-24T10:47:17;4.32;;;3.10;;
76204;SDS011;64986;55.672;37.628;2023-06-24T10:49:43;3.38;;;3.08;;
76204;SDS011;64986;55.672;37.628;2023-06-24T10:52:08;3.70;;;3.30;;
76204;SDS011;64986;55.672;37.628;2023-06-24T10:54:34;3.55;;;3.25;;
76204;SDS011;64986;55.672;37.628;2023-06-24T10:57:00;3.83;;;3.45;;
76204;SDS011;64986;55.672;37.628;2023-06-24T10:59:25;5.07;;;3.85;;
76204;SDS011;64986;55.672;37.628;2023-06-24T11:01:54;4.72;;;3.47;;
76204;SDS011;64986;55.672;37.628;2023-06-24T11:04:19;4.43;;;3.72;;
76204;SDS011;64986;55.672;37.628;2023-06-24T11:07:00;4.13;;;3.08;;
76204;SDS011;64986;55.672;37.628;2023-06-24T11:09:26;4.13;;;3.22;;
76204;SDS011;64986;55.672;37.628;2023-06-24T11:11:51;3.72;;;3.33;;
76204;SDS011;64986;55.672;37.628;2023-06-24T11:14:17;4.70;;;3.50;;
76204;SDS011;64986;55.672;37.628;2023-06-24T11:16:42;3.38;;;2.95;;
76204;SDS011;64986;55.672;37.628;2023-06-24T11:19:08;5.35;;;3.55;;
76204;SDS011;64986;55.672;37.628;2023-06-24T11:21:33;6.13;;;4.68;;
76204;SDS011;64986;55.672;37.628;2023-06-24T11:24:02;4.68;;;3.22;;
76204;SDS011;64986;55.672;37.628;2023-06-24T11:26:27;6.45;;;3.58;;
76204;SDS011;64986;55.672;37.628;2023-06-24T11:28:53;4.07;;;3.67;;
76204;SDS011;64986;55.672;37.628;2023-06-24T11:31:18;5.93;;;3.40;;
76204;SDS011;64986;55.672;37.628;2023-06-24T11:33:48;5.97;;;3.17;;
76204;SDS011;64986;55.672;37.628;2023-06-24T11:36:16;7.07;;;3.67;;
76204;SDS011;64986;55.672;37.628;2023-06-24T11:38:41;5.60;;;3.35;;
76204;SDS011;64986;55.672;37.628;2023-06-24T11:41:07;3.63;;;3.20;;
76204;SDS011;64986;55.672;37.628;2023-06-24T11:43:32;5.57;;;2.92;;
76204;SDS011;64986;55.672;37.628;2023-06-24T11:45:58;6.43;;;2.85;;
76204;SDS011;64986;55.672;37.628;2023-06-24T11:48:27;5.53;;;2.80;;
76204;SDS011;64986;55.672;37.628;2023-06-24T11:50:53;5.97;;;2.58;;
76204;SDS011;64986;55.672;37.628;2023-06-24T11:53:22;3.60;;;3.05;;
76204;SDS011;64986;55.672;37.628;2023-06-24T11:55:55;3.75;;;2.90;;
76204;SDS011;64986;55.672;37.628;2023-06-24T11:58:21;7.20;;;3.00;;
76204;SDS011;64986;55.672;37.628;2023-06-24T12:00:48;3.05;;;2.72;;
76204;SDS011;64986;55.672;37.628;2023-06-24T12:03:15;4.22;;;2.78;;
76204;SDS011;64986;55.672;37.628;2023-06-24T12:05:40;4.32;;;3.92;;
76204;SDS011;64986;55.672;37.628;2023-06-24T12:08:11;5.10;;;3.10;;
76204;SDS011;64986;55.672;37.628;2023-06-24T12:10:37;4.10;;;3.10;;
76204;SDS011;64986;55.672;37.628;2023-06-24T12:13:03;5.30;;;2.65;;
76204;SDS011;64986;55.672;37.628;2023-06-24T12:15:29;3.67;;;2.92;;
76204;SDS011;64986;55.672;37.628;2023-06-24T12:17:55;5.22;;;2.55;;
76204;SDS011;64986;55.672;37.628;2023-06-24T12:20:20;10.88;;;3.55;;
76204;SDS011;64986;55.672;37.628;2023-06-24T12:22:46;3.63;;;2.33;;
76204;SDS011;64986;55.672;37.628;2023-06-24T12:25:13;3.38;;;2.30;;
76204;SDS011;64986;55.672;37.628;2023-06-24T12:27:39;3.53;;;2.85;;
76204;SDS011;64986;55.672;37.628;2023-06-24T12:30:05;5.25;;;2.92;;
76204;SDS011;64986;55.672;37.628;2023-06-24T12:32:31;4.25;;;2.50;;
76204;SDS011;64986;55.672;37.628;2023-06-24T12:34:56;7.03;;;2.33;;
76204;SDS011;64986;55.672;37.628;2023-06-24T12:37:21;3.33;;;2.30;;
76204;SDS011;64986;55.672;37.628;2023-06-24T12:39:47;6.55;;;2.58;;
76204;SDS011;64986;55.672;37.628;2023-06-24T12:42:12;5.45;;;2.88;;
76204;SDS011;64986;55.672;37.628;2023-06-24T12:44:38;4.65;;;2.72;;
76204;SDS011;64986;55.672;37.628;2023-06-24T12:47:03;3.08;;;2.40;;
76204;SDS011;64986;55.672;37.628;2023-06-24T12:49:28;3.45;;;2.70;;
76204;SDS011;64986;55.672;37.628;2023-06-24T12:51:54;7.05;;;3.33;;
76204;SDS011;64986;55.672;37.628;2023-06-24T12:54:19;4.70;;;2.97;;
76204;SDS011;64986;55.672;37.628;2023-06-24T12:56:44;9.75;;;6.35;;
76204;SDS011;64986;55.672;37.628;2023-06-24T12:59:10;4.05;;;3.60;;
76204;SDS011;64986;55.672;37.628;2023-06-24T13:01:35;8.93;;;2.92;;
76204;SDS011;64986;55.672;37.628;2023-06-24T13:04:00;4.15;;;3.03;;
76204;SDS011;64986;55.672;37.628;2023-06-24T13:06:26;3.95;;;2.78;;
76204;SDS011;64986;55.672;37.628;2023-06-24T13:08:51;7.13;;;3.03;;
76204;SDS011;64986;55.672;37.628;2023-06-24T13:11:17;4.10;;;3.28;;
76204;SDS011;64986;55.672;37.628;2023-06-24T13:13:42;6.43;;;3.40;;
76204;SDS011;64986;55.672;37.628;2023-06-24T13:16:07;4.07;;;3.33;;
76204;SDS011;64986;55.672;37.628;2023-06-24T13:18:32;5.03;;;4.00;;
76204;SDS011;64986;55.672;37.628;2023-06-24T13:20:58;4.47;;;3.70;;
76204;SDS011;64986;55.672;37.628;2023-06-24T13:23:23;6.45;;;3.88;;
76204;SDS011;64986;55.672;37.628;2023-06-24T13:25:48;4.20;;;3.47;;
76204;SDS011;64986;55.672;37.628;2023-06-24T13:28:14;6.85;;;3.72;;
76204;SDS011;64986;55.672;37.628;2023-06-24T13:30:39;4.97;;;3.53;;
76204;SDS011;64986;55.672;37.628;2023-06-24T13:33:04;9.13;;;3.60;;
76204;SDS011;64986;55.672;37.628;2023-06-24T13:35:30;4.50;;;3.38;;
76204;SDS011;64986;55.672;37.628;2023-06-24T13:37:55;4.78;;;3.60;;
76204;SDS011;64986;55.672;37.628;2023-06-24T13:40:23;5.07;;;3.03;;
76204;SDS011;64986;55.672;37.628;2023-06-24T13:42:50;4.38;;;3.72;;
76204;SDS011;64986;55.672;37.628;2023-06-24T13:45:16;4.30;;;2.78;;
76204;SDS011;64986;55.672;37.628;2023-06-24T13:47:41;3.95;;;2.67;;
76204;SDS011;64986;55.672;37.628;2023-06-24T13:50:07;12.90;;;2.97;;
76204;SDS011;64986;55.672;37.628;2023-06-24T13:52:33;5.18;;;3.00;;
76204;SDS011;64986;55.672;37.628;2023-06-24T13:54:59;4.78;;;3.00;;
76204;SDS011;64986;55.672;37.628;2023-06-24T13:57:25;3.65;;;3.28;;
76204;SDS011;64986;55.672;37.628;2023-06-24T13:59:50;3.13;;;2.83;;
76204;SDS011;64986;55.672;37.628;2023-06-24T14:02:16;5.53;;;2.78;;
76204;SDS011;64986;55.672;37.628;2023-06-24T14:04:41;8.02;;;4.13;;
76204;SDS011;64986;55.672;37.628;2023-06-24T14:07:07;5.68;;;3.60;;
76204;SDS011;64986;55.672;37.628;2023-06-24T14:09:33;6.65;;;3.13;;
76204;SDS011;64986;55.672;37.628;2023-06-24T14:11:59;4.28;;;2.95;;
76204;SDS011;64986;55.672;37.628;2023-06-24T14:14:25;4.25;;;3.10;;
76204;SDS011;64986;55.672;37.628;2023-06-24T14:16:50;4.22;;;3.10;;
76204;SDS011;64986;55.672;37.628;2023-06-24T14:19:16;5.32;;;3.08;;
76204;SDS011;64986;55.672;37.628;2023-06-24T14:21:41;4.38;;;2.95;;
76204;SDS011;64986;55.672;37.628;2023-06-24T14:24:06;7.95;;;3.72;;
76204;SDS011;64986;55.672;37.628;2023-06-24T14:26:35;5.97;;;3.05;;
76204;SDS011;64986;55.672;37.628;2023-06-24T14:29:01;4.45;;;2.80;;
76204;SDS011;64986;55.672;37.628;2023-06-24T14:31:27;5.95;;;3.40;;
76204;SDS011;64986;55.672;37.628;2023-06-24T14:33:52;3.00;;;2.63;;
76204;SDS011;64986;55.672;37.628;2023-06-24T14:36:18;5.75;;;2.90;;
76204;SDS011;64986;55.672;37.628;2023-06-24T14:38:43;7.13;;;3.10;;
76204;SDS011;64986;55.672;37.628;2023-06-24T14:41:10;4.57;;;2.63;;
76204;SDS011;64986;55.672;37.628;2023-06-24T14:43:35;6.53;;;2.65;;